createdAt,value
2022-12-09T00:01:19.863Z,22.30
2022-12-09T00:03:48.081Z,20.95
2022-12-09T00:06:16.979Z,21.92
2022-12-09T00:08:44.528Z,21.73
2022-12-09T00:11:12.076Z,20.52
2022-12-09T00:13:39.812Z,22.15
2022-12-09T00:16:08.969Z,21.27
2022-12-09T00:18:37.053Z,21.70
2022-12-09T00:21:22.645Z,20.83
2022-12-09T00:23:51.736Z,20.45
2022-12-09T00:26:21.275Z,20.98
2022-12-09T00:28:50.098Z,21.05
2022-12-09T00:31:20.659Z,20.25
2022-12-09T00:33:48.055Z,21.58
2022-12-09T00:36:17.967Z,21.45
2022-12-09T00:38:45.716Z,21.70
2022-12-09T00:41:13.623Z,21.77
2022-12-09T00:43:42.055Z,23.13
2022-12-09T00:46:10.573Z,22.15
2022-12-09T00:48:38.689Z,22.60
2022-12-09T00:51:07.746Z,22.52
2022-12-09T00:53:35.391Z,23.45
2022-12-09T00:56:03.362Z,24.02
2022-12-09T00:58:30.698Z,22.48
2022-12-09T01:00:58.071Z,21.20
2022-12-09T01:03:25.781Z,21.42
2022-12-09T01:05:54.704Z,21.88
2022-12-09T01:08:22.369Z,22.08
2022-12-09T01:10:50.099Z,22.63
2022-12-09T01:13:17.614Z,21.83
2022-12-09T01:15:45.369Z,20.98
2022-12-09T01:18:13.086Z,20.15
2022-12-09T01:20:40.564Z,21.25
2022-12-09T01:23:08.455Z,20.95
2022-12-09T01:25:38.156Z,20.60
2022-12-09T01:28:05.630Z,20.83
2022-12-09T01:30:33.233Z,21.08
2022-12-09T01:33:01.020Z,21.77
2022-12-09T01:35:28.816Z,20.73
2022-12-09T01:37:56.265Z,21.67
2022-12-09T01:40:23.773Z,20.70
2022-12-09T01:42:51.585Z,21.40
2022-12-09T01:45:23.448Z,22.15
2022-12-09T01:48:01.914Z,23.45
2022-12-09T01:50:30.795Z,21.50
2022-12-09T01:52:59.324Z,21.27
2022-12-09T01:55:27.826Z,21.60
2022-12-09T01:57:55.513Z,21.23
2022-12-09T02:00:22.964Z,21.75
2022-12-09T02:02:53.427Z,20.92
2022-12-09T02:05:22.137Z,20.65
2022-12-09T02:07:55.206Z,21.02
2022-12-09T02:10:22.741Z,20.85
2022-12-09T02:13:13.442Z,21.35
2022-12-09T02:15:52.410Z,19.73
2022-12-09T02:18:27.814Z,21.70
2022-12-09T02:21:00.309Z,20.83
2022-12-09T02:23:39.967Z,20.98
2022-12-09T02:26:20.815Z,21.00
2022-12-09T02:29:06.252Z,21.85
2022-12-09T02:31:52.447Z,21.70
2022-12-09T02:34:21.665Z,21.77
2022-12-09T02:37:10.811Z,21.23
2022-12-09T02:39:42.193Z,21.58
2022-12-09T02:42:13.440Z,19.88
2022-12-09T02:44:42.003Z,21.23
2022-12-09T02:47:15.534Z,21.05
2022-12-09T02:49:48.318Z,21.13
2022-12-09T02:52:17.926Z,22.10
2022-12-09T02:54:46.804Z,21.90
2022-12-09T02:57:19.419Z,21.88
2022-12-09T02:59:46.985Z,20.23
2022-12-09T03:02:21.819Z,22.23
2022-12-09T03:05:12.881Z,21.77
2022-12-09T03:07:52.237Z,21.27
2022-12-09T03:10:25.415Z,21.73
2022-12-09T03:13:01.015Z,22.38
2022-12-09T03:15:34.009Z,21.02
2022-12-09T03:18:06.468Z,22.67
2022-12-09T03:20:36.404Z,22.08
2022-12-09T03:23:06.480Z,22.00
2022-12-09T03:25:39.776Z,21.83
2022-12-09T03:28:17.256Z,22.98
2022-12-09T03:30:46.106Z,22.08
2022-12-09T03:33:17.945Z,22.15
2022-12-09T03:35:51.838Z,21.20
2022-12-09T03:38:22.284Z,23.33
2022-12-09T03:41:24.909Z,21.75
2022-12-09T03:44:18.775Z,21.48
2022-12-09T03:46:47.703Z,23.90
2022-12-09T03:49:15.953Z,22.10
2022-12-09T03:51:56.888Z,20.90
2022-12-09T03:54:34.959Z,20.88
2022-12-09T03:57:02.956Z,22.85
2022-12-09T03:59:34.138Z,21.83
2022-12-09T04:02:03.958Z,20.92
2022-12-09T04:04:31.524Z,21.60
2022-12-09T04:06:59.343Z,21.65
2022-12-09T04:09:27.081Z,23.05
2022-12-09T04:11:54.614Z,22.48
2022-12-09T04:14:21.932Z,21.80
2022-12-09T04:16:49.692Z,22.38
2022-12-09T04:19:17.524Z,21.92
2022-12-09T04:21:44.852Z,21.33
2022-12-09T04:24:13.162Z,20.85
2022-12-09T04:26:40.695Z,21.48
2022-12-09T04:29:09.438Z,21.23
2022-12-09T04:31:37.346Z,22.02
2022-12-09T04:34:09.235Z,21.23
2022-12-09T04:36:38.090Z,22.55
2022-12-09T04:39:05.544Z,21.90
2022-12-09T04:41:32.887Z,21.70
2022-12-09T04:44:01.363Z,21.77
2022-12-09T04:46:29.063Z,21.52
2022-12-09T04:48:56.468Z,21.33
2022-12-09T04:51:24.104Z,22.70
2022-12-09T04:53:51.449Z,22.52
2022-12-09T04:56:21.465Z,22.77
2022-12-09T04:58:50.691Z,20.73
2022-12-09T05:01:26.407Z,21.63
2022-12-09T05:03:57.756Z,21.85
2022-12-09T05:06:25.962Z,22.23
2022-12-09T05:08:53.631Z,21.73
2022-12-09T05:11:24.104Z,22.20
2022-12-09T05:13:53.960Z,21.58
2022-12-09T05:16:21.526Z,22.25
2022-12-09T05:18:49.962Z,21.15
2022-12-09T05:21:20.076Z,21.05
2022-12-09T05:23:48.548Z,22.00
2022-12-09T05:26:18.617Z,23.00
2022-12-09T05:28:46.257Z,22.40
2022-12-09T05:31:17.163Z,22.70
2022-12-09T05:33:45.798Z,22.25
2022-12-09T05:36:16.270Z,21.80
2022-12-09T05:38:43.866Z,21.60
2022-12-09T05:41:11.429Z,22.58
2022-12-09T05:43:39.511Z,21.30
2022-12-09T05:46:07.853Z,21.83
2022-12-09T05:48:36.372Z,22.00
2022-12-09T05:51:06.762Z,21.52
2022-12-09T05:53:34.689Z,21.80
2022-12-09T05:56:03.007Z,21.88
2022-12-09T05:58:30.802Z,21.80
2022-12-09T06:01:07.978Z,23.20
2022-12-09T06:03:36.543Z,21.95
2022-12-09T06:06:12.812Z,22.05
2022-12-09T06:08:41.960Z,21.80
2022-12-09T06:11:15.594Z,23.20
2022-12-09T06:13:43.454Z,21.30
2022-12-09T06:16:12.048Z,22.23
2022-12-09T06:18:39.581Z,22.13
2022-12-09T06:21:09.245Z,21.45
2022-12-09T06:23:38.474Z,21.48
2022-12-09T06:26:06.357Z,21.40
2022-12-09T06:28:34.175Z,22.48
2022-12-09T06:31:01.796Z,22.90
2022-12-09T06:33:53.443Z,21.98
2022-12-09T06:36:16.936Z,22.88
2022-12-09T06:38:44.483Z,22.42
2022-12-09T06:41:14.351Z,23.60
2022-12-09T06:43:42.594Z,22.83
2022-12-09T06:46:16.214Z,23.50
2022-12-09T06:48:43.919Z,22.83
2022-12-09T06:51:12.272Z,22.67
2022-12-09T06:53:39.764Z,22.85
2022-12-09T06:56:12.312Z,23.50
2022-12-09T06:58:45.164Z,23.60
2022-12-09T07:01:15.895Z,22.27
2022-12-09T07:03:45.805Z,22.40
2022-12-09T07:06:27.782Z,22.40
2022-12-09T07:08:57.345Z,25.95
2022-12-09T07:11:25.169Z,23.15
2022-12-09T07:13:53.026Z,23.88
2022-12-09T07:16:20.488Z,22.77
2022-12-09T07:18:48.184Z,22.92
2022-12-09T07:21:18.778Z,24.27
2022-12-09T07:23:47.230Z,23.60
2022-12-09T07:26:15.140Z,24.38
2022-12-09T07:28:43.574Z,24.67
2022-12-09T07:31:20.750Z,24.85
2022-12-09T07:33:49.808Z,23.80
2022-12-09T07:36:21.326Z,23.70
2022-12-09T07:39:00.205Z,24.42
2022-12-09T07:41:28.388Z,25.02
2022-12-09T07:43:56.606Z,25.48
2022-12-09T07:46:27.643Z,24.77
2022-12-09T07:48:56.308Z,25.17
2022-12-09T07:51:25.113Z,25.80
2022-12-09T07:53:53.746Z,24.95
2022-12-09T07:56:22.429Z,25.95
2022-12-09T07:58:53.390Z,23.33
2022-12-09T08:01:24.561Z,23.00
2022-12-09T08:03:53.456Z,24.80
2022-12-09T08:06:23.636Z,24.95
2022-12-09T08:08:51.851Z,25.45
2022-12-09T08:11:24.661Z,25.25
2022-12-09T08:13:53.494Z,25.08
2022-12-09T08:16:23.092Z,22.92
2022-12-09T08:18:52.030Z,22.52
2022-12-09T08:21:26.912Z,22.75
2022-12-09T08:23:56.783Z,23.27
2022-12-09T08:26:26.315Z,22.75
2022-12-09T08:28:54.260Z,22.63
2022-12-09T08:31:24.607Z,23.05
2022-12-09T08:33:53.420Z,22.02
2022-12-09T08:36:24.387Z,22.00
2022-12-09T08:38:52.478Z,21.98
2022-12-09T08:41:38.500Z,21.40
2022-12-09T08:44:13.676Z,22.77
2022-12-09T08:46:44.463Z,21.05
2022-12-09T08:49:12.954Z,21.23
2022-12-09T08:51:41.222Z,22.00
2022-12-09T08:54:09.185Z,22.35
2022-12-09T08:56:37.442Z,21.40
2022-12-09T08:59:05.496Z,25.48
2022-12-09T09:01:34.873Z,23.30
2022-12-09T09:04:06.421Z,21.88
2022-12-09T09:06:34.627Z,21.80
2022-12-09T09:09:03.129Z,22.13
2022-12-09T09:11:31.642Z,21.02
2022-12-09T09:13:59.488Z,22.27
2022-12-09T09:16:27.408Z,21.42
2022-12-09T09:18:55.377Z,21.15
2022-12-09T09:21:25.059Z,20.67
2022-12-09T09:23:52.782Z,20.92
2022-12-09T09:26:22.809Z,21.70
2022-12-09T09:28:50.425Z,21.83
2022-12-09T09:31:23.053Z,20.10
2022-12-09T09:33:51.272Z,23.02
2022-12-09T09:36:22.592Z,20.52
2022-12-09T09:38:52.330Z,21.75
2022-12-09T09:41:45.340Z,19.23
2022-12-09T09:44:24.224Z,19.88
2022-12-09T09:46:53.656Z,19.63
2022-12-09T09:49:30.218Z,17.67
2022-12-09T09:52:03.762Z,13.23
2022-12-09T09:54:32.358Z,14.25
2022-12-09T09:57:31.326Z,10.77
2022-12-09T10:00:23.735Z,9.80
2022-12-09T10:02:59.644Z,10.77
2022-12-09T10:05:30.431Z,10.02
2022-12-09T10:08:32.269Z,10.23
2022-12-09T10:11:17.057Z,10.48
2022-12-09T10:14:06.866Z,11.43
2022-12-09T10:16:45.629Z,12.18
2022-12-09T10:19:13.300Z,12.85
2022-12-09T10:21:45.351Z,13.63
2022-12-09T10:24:26.014Z,13.35
2022-12-09T10:27:12.583Z,14.63
2022-12-09T10:29:56.775Z,13.57
2022-12-09T10:32:30.944Z,13.32
2022-12-09T10:34:59.285Z,12.35
2022-12-09T10:37:31.553Z,13.68
2022-12-09T10:40:07.886Z,12.40
2022-12-09T10:43:03.311Z,11.98
2022-12-09T10:48:37.862Z,10.07
2022-12-09T10:51:13.139Z,10.32
2022-12-09T10:53:51.627Z,10.35
2022-12-09T10:56:29.899Z,9.38
2022-12-09T10:59:22.524Z,9.15
2022-12-09T11:01:53.841Z,9.50
2022-12-09T11:04:42.213Z,9.52
2022-12-09T11:07:13.330Z,9.05
2022-12-09T11:09:47.861Z,7.72
2022-12-09T11:12:29.967Z,8.05
2022-12-09T11:15:03.731Z,7.63
2022-12-09T11:17:35.920Z,8.20
2022-12-09T11:20:07.522Z,8.27
2022-12-09T11:22:41.185Z,8.35
2022-12-09T11:25:12.108Z,7.82
2022-12-09T11:27:42.049Z,7.38
2022-12-09T11:30:16.093Z,8.02
2022-12-09T11:33:22.858Z,8.27
2022-12-09T11:35:54.124Z,9.63
2022-12-09T11:38:36.196Z,9.38
2022-12-09T11:41:09.456Z,8.45
2022-12-09T11:43:55.776Z,7.85
2022-12-09T11:46:27.159Z,7.30
2022-12-09T11:49:17.190Z,6.90
2022-12-09T11:52:00.484Z,7.40
2022-12-09T11:54:36.117Z,6.88
2022-12-09T11:57:06.351Z,7.10
2022-12-09T11:59:44.230Z,7.45
2022-12-09T12:02:34.928Z,7.18
2022-12-09T12:05:22.942Z,7.50
2022-12-09T12:08:16.852Z,8.90
2022-12-09T12:10:50.655Z,8.40
2022-12-09T12:13:58.027Z,7.40
2022-12-09T12:16:55.160Z,6.90
2022-12-09T12:19:38.033Z,6.50
2022-12-09T12:22:27.096Z,6.05
2022-12-09T12:25:05.259Z,7.20
2022-12-09T12:27:59.190Z,6.53
2022-12-09T12:30:38.791Z,7.32
2022-12-09T12:36:35.642Z,5.93
2022-12-09T12:39:23.976Z,7.00
2022-12-09T12:41:56.220Z,6.53
2022-12-09T12:44:57.565Z,6.15
2022-12-09T12:48:01.363Z,6.93
2022-12-09T12:50:50.324Z,6.78
2022-12-09T12:53:39.534Z,6.82
2022-12-09T12:56:23.429Z,7.05
2022-12-09T13:04:39.275Z,7.18
2022-12-09T13:07:29.132Z,7.75
2022-12-09T13:10:07.720Z,7.43
2022-12-09T13:13:01.638Z,8.23
2022-12-09T13:15:51.747Z,8.93
2022-12-09T13:18:26.629Z,8.27
2022-12-09T13:20:56.079Z,9.48
2022-12-09T13:23:42.066Z,8.20
2022-12-09T13:26:30.994Z,7.72
2022-12-09T13:29:13.270Z,9.07
2022-12-09T13:31:51.020Z,7.20
2022-12-09T13:34:39.240Z,8.05
2022-12-09T13:37:41.596Z,8.55
2022-12-09T13:40:20.940Z,9.73
2022-12-09T13:42:58.894Z,9.85
2022-12-09T13:45:43.737Z,10.63
2022-12-09T13:50:51.506Z,9.73
2022-12-09T13:53:25.241Z,10.43
2022-12-09T13:56:07.407Z,11.43
2022-12-09T13:59:06.448Z,10.93
2022-12-09T14:02:30.782Z,10.18
2022-12-09T14:05:04.004Z,10.75
2022-12-09T14:07:37.024Z,10.70
2022-12-09T14:10:05.610Z,11.20
2022-12-09T14:12:33.161Z,10.15
2022-12-09T14:15:26.155Z,10.95
2022-12-09T14:18:03.527Z,11.18
2022-12-09T14:20:37.331Z,12.63
2022-12-09T14:23:07.342Z,13.07
2022-12-09T14:25:34.634Z,11.40
2022-12-09T14:28:13.809Z,12.23
2022-12-09T14:30:47.082Z,13.50
2022-12-09T14:33:46.730Z,13.10
2022-12-09T14:36:16.867Z,12.50
2022-12-09T14:39:25.797Z,12.60
2022-12-09T14:42:25.894Z,27.08
2022-12-09T14:45:03.101Z,13.35
2022-12-09T14:47:39.465Z,13.70
2022-12-09T14:50:19.727Z,15.60
2022-12-09T14:53:02.813Z,14.48
2022-12-09T14:55:33.941Z,13.60
2022-12-09T14:58:01.759Z,12.38
2022-12-09T15:00:41.558Z,15.23
2022-12-09T15:03:44.761Z,16.08
2022-12-09T15:06:17.447Z,13.23
2022-12-09T15:08:45.701Z,13.07
2022-12-09T15:11:23.253Z,13.20
2022-12-09T15:13:52.609Z,14.27
2022-12-09T15:16:24.283Z,14.57
2022-12-09T15:18:53.595Z,15.55
2022-12-09T15:21:29.974Z,16.25
2022-12-09T15:23:59.243Z,17.05
2022-12-09T15:26:33.038Z,16.65
2022-12-09T15:29:04.984Z,16.92
2022-12-09T15:31:34.299Z,16.05
2022-12-09T15:34:14.306Z,16.17
2022-12-09T15:36:49.063Z,15.82
2022-12-09T15:39:21.359Z,12.35
2022-12-09T15:42:08.183Z,15.07
2022-12-09T15:45:00.641Z,11.48
2022-12-09T15:47:45.731Z,12.98
2022-12-09T15:50:21.813Z,18.35
2022-12-09T15:52:51.557Z,13.35
2022-12-09T15:55:22.189Z,11.85
2022-12-09T15:57:53.758Z,13.80
2022-12-09T16:00:21.322Z,12.38
2022-12-09T16:02:49.801Z,12.88
2022-12-09T16:05:24.322Z,11.70
2022-12-09T16:07:57.763Z,11.73
2022-12-09T16:10:28.821Z,10.88
2022-12-09T16:13:11.707Z,12.32
2022-12-09T16:15:47.385Z,12.60
2022-12-09T16:18:21.501Z,14.02
2022-12-09T16:21:02.211Z,14.77
2022-12-09T16:23:29.846Z,13.15
2022-12-09T16:26:06.938Z,15.68
2022-12-09T16:28:35.397Z,13.30
2022-12-09T16:31:16.386Z,12.82
2022-12-09T16:33:48.123Z,17.10
2022-12-09T16:36:24.274Z,15.38
2022-12-09T16:39:24.079Z,14.75
2022-12-09T16:41:51.364Z,12.70
2022-12-09T16:44:29.547Z,15.75
2022-12-09T16:47:26.452Z,17.23
2022-12-09T16:49:53.777Z,15.55
2022-12-09T16:52:24.130Z,15.50
2022-12-09T16:54:51.974Z,13.60
2022-12-09T16:57:20.473Z,15.77
2022-12-09T16:59:48.088Z,14.43
2022-12-09T17:02:39.369Z,15.63
2022-12-09T17:05:07.410Z,14.10
2022-12-09T17:07:34.932Z,13.20
2022-12-09T17:10:02.242Z,13.82
2022-12-09T17:12:29.548Z,13.50
2022-12-09T17:14:56.985Z,13.88
2022-12-09T17:17:24.232Z,16.05
2022-12-09T17:19:51.520Z,16.58
2022-12-09T17:22:18.789Z,16.73
2022-12-09T17:24:46.084Z,15.27
2022-12-09T17:27:13.319Z,15.70
2022-12-09T17:29:40.741Z,15.20
2022-12-09T17:32:08.093Z,15.35
2022-12-09T17:34:35.392Z,15.52
2022-12-09T17:37:02.876Z,16.38
2022-12-09T17:39:30.304Z,18.55
2022-12-09T17:41:57.622Z,16.05
2022-12-09T17:44:24.928Z,16.23
2022-12-09T17:46:52.199Z,14.73
2022-12-09T17:49:20.360Z,14.18
2022-12-09T17:51:47.667Z,14.68
2022-12-09T17:54:14.893Z,17.30
2022-12-09T17:56:42.196Z,17.27
2022-12-09T17:59:14.150Z,17.75
2022-12-09T18:01:43.888Z,16.95
2022-12-09T18:04:11.768Z,17.42
2022-12-09T18:06:43.381Z,17.52
2022-12-09T18:09:16.835Z,18.50
2022-12-09T18:11:45.250Z,18.08
2022-12-09T18:14:12.711Z,17.52
2022-12-09T18:16:40.067Z,16.65
2022-12-09T18:19:12.795Z,16.17
2022-12-09T18:21:40.155Z,15.68
2022-12-09T18:24:07.813Z,16.23
2022-12-09T18:26:41.089Z,15.35
2022-12-09T18:29:10.116Z,15.07
2022-12-09T18:31:37.474Z,16.58
2022-12-09T18:34:05.071Z,16.77
2022-12-09T18:36:32.448Z,16.45
2022-12-09T18:38:59.816Z,19.17
2022-12-09T18:41:29.388Z,19.67
2022-12-09T18:43:59.157Z,20.20
2022-12-09T18:46:29.176Z,19.10
2022-12-09T18:48:58.914Z,20.65
2022-12-09T18:51:26.866Z,18.88
2022-12-09T18:53:56.232Z,17.50
2022-12-09T18:56:23.630Z,13.98
2022-12-09T18:59:06.585Z,18.08
2022-12-09T19:01:38.937Z,18.05
2022-12-09T19:04:08.564Z,17.42
2022-12-09T19:06:38.883Z,17.85
2022-12-09T19:09:30.842Z,17.25
2022-12-09T19:12:11.313Z,16.58
2022-12-09T19:14:46.087Z,16.42
2022-12-09T19:17:13.354Z,16.45
2022-12-09T19:19:40.575Z,16.02
2022-12-09T19:22:08.195Z,16.30
2022-12-09T19:24:39.781Z,17.02
2022-12-09T19:29:37.604Z,17.00
2022-12-09T19:32:13.915Z,16.70
2022-12-09T19:34:51.185Z,18.20
2022-12-09T19:37:18.505Z,18.80
2022-12-09T19:39:46.661Z,19.92
2022-12-09T19:42:14.104Z,20.52
2022-12-09T19:45:00.996Z,17.25
2022-12-09T19:47:28.718Z,18.50
2022-12-09T19:49:56.075Z,19.05
2022-12-09T19:52:23.348Z,18.35
2022-12-09T19:54:50.658Z,17.05
2022-12-09T19:57:17.947Z,16.58
2022-12-09T19:59:47.315Z,17.05
2022-12-09T20:02:15.010Z,18.45
2022-12-09T20:04:50.743Z,19.13
2022-12-09T20:07:19.770Z,18.52
2022-12-09T20:09:47.644Z,19.23
2022-12-09T20:12:15.154Z,18.58
2022-12-09T20:14:43.141Z,18.33
2022-12-09T20:17:10.706Z,18.70
2022-12-09T20:19:38.197Z,17.58
2022-12-09T20:22:05.656Z,18.90
2022-12-09T20:24:33.371Z,17.73
2022-12-09T20:27:00.957Z,18.02
2022-12-09T20:29:32.466Z,19.13
2022-12-09T20:32:03.099Z,18.95
2022-12-09T20:34:30.460Z,17.80
2022-12-09T20:36:57.968Z,18.75
2022-12-09T20:39:25.324Z,17.67
2022-12-09T20:41:52.906Z,17.60
2022-12-09T20:44:20.266Z,16.83
2022-12-09T20:46:50.286Z,17.17
2022-12-09T20:49:19.667Z,19.65
2022-12-09T20:51:48.561Z,21.45
2022-12-09T20:54:16.260Z,25.27
2022-12-09T20:56:43.745Z,25.52
2022-12-09T20:59:13.517Z,24.17
2022-12-09T21:01:41.637Z,24.08
2022-12-09T21:04:09.025Z,21.98
2022-12-09T21:06:38.555Z,20.77
2022-12-09T21:09:09.353Z,22.05
2022-12-09T21:11:37.691Z,24.58
2022-12-09T21:14:06.798Z,23.95
2022-12-09T21:16:38.636Z,25.42
2022-12-09T21:19:10.197Z,26.65
2022-12-09T21:21:40.438Z,25.30
2022-12-09T21:24:10.367Z,26.65
2022-12-09T21:26:37.847Z,25.77
2022-12-09T21:29:05.243Z,25.02
2022-12-09T21:31:35.144Z,28.83
2022-12-09T21:34:04.120Z,27.98
2022-12-09T21:36:37.001Z,26.80
2022-12-09T21:39:06.458Z,27.13
2022-12-09T21:41:36.352Z,27.67
2022-12-09T21:44:05.130Z,27.48
2022-12-09T21:46:35.159Z,26.73
2022-12-09T21:49:04.924Z,31.15
2022-12-09T21:51:34.175Z,33.17
2022-12-09T21:54:02.124Z,32.80
2022-12-09T21:56:32.658Z,33.30
2022-12-09T21:59:00.351Z,30.60
2022-12-09T22:01:33.197Z,33.17
2022-12-09T22:04:01.962Z,26.80
2022-12-09T22:06:30.573Z,25.33
2022-12-09T22:08:59.679Z,25.17
2022-12-09T22:11:30.381Z,25.23
2022-12-09T22:13:59.716Z,26.70
2022-12-09T22:16:47.532Z,25.33
2022-12-09T22:19:18.653Z,30.00
2022-12-09T22:21:46.475Z,27.25
2022-12-09T22:24:14.984Z,25.85
2022-12-09T22:26:45.403Z,25.17
2022-12-09T22:29:15.590Z,25.83
2022-12-09T22:31:43.685Z,25.42
2022-12-09T22:34:19.457Z,26.73
2022-12-09T22:36:48.297Z,27.35
2022-12-09T22:39:18.955Z,25.05
2022-12-09T22:41:46.494Z,22.02
2022-12-09T22:44:16.922Z,23.67
2022-12-09T22:49:21.570Z,23.38
2022-12-09T22:51:48.725Z,24.02
2022-12-09T22:54:17.107Z,23.77
2022-12-09T22:56:44.365Z,24.73
2022-12-09T22:59:12.956Z,22.50
2022-12-09T23:01:39.858Z,23.23
2022-12-09T23:04:07.680Z,21.85
2022-12-09T23:14:20.506Z,22.25
2022-12-09T23:16:47.202Z,22.67
2022-12-09T23:19:14.870Z,23.45
2022-12-09T23:21:42.414Z,21.33
2022-12-09T23:24:15.710Z,22.52
2022-12-09T23:26:45.186Z,22.73
2022-12-09T23:29:14.585Z,22.65
2022-12-09T23:34:34.357Z,21.83
2022-12-09T23:37:01.779Z,22.08
2022-12-09T23:39:29.020Z,21.05
2022-12-09T23:41:56.305Z,22.35
2022-12-09T23:44:23.564Z,21.48
2022-12-09T23:46:50.874Z,22.85
2022-12-09T23:49:18.239Z,21.25
2022-12-09T23:51:45.877Z,22.83
2022-12-09T23:54:14.920Z,23.25
2022-12-09T23:56:50.722Z,20.92
2022-12-09T23:59:20.579Z,23.10
